createdAt,value
2023-03-29T00:02:19.490Z,16.70
2023-03-29T00:04:46.909Z,14.57
2023-03-29T00:07:14.142Z,14.27
2023-03-29T00:09:40.756Z,15.03
2023-03-29T00:12:07.345Z,15.80
2023-03-29T00:14:33.819Z,14.80
2023-03-29T00:17:00.464Z,15.17
2023-03-29T00:19:27.042Z,19.63
2023-03-29T00:21:53.565Z,16.17
2023-03-29T00:24:21.459Z,13.60
2023-03-29T00:26:48.410Z,18.70
2023-03-29T00:29:14.909Z,16.87
2023-03-29T00:31:41.464Z,17.93
2023-03-29T00:34:07.982Z,18.07
2023-03-29T00:36:34.532Z,12.03
2023-03-29T00:39:01.072Z,15.10
2023-03-29T00:41:27.655Z,15.60
2023-03-29T00:43:59.401Z,14.83
2023-03-29T00:46:27.233Z,15.83
2023-03-29T00:48:56.549Z,13.73
2023-03-29T00:51:25.467Z,14.30
2023-03-29T00:53:56.372Z,15.40
2023-03-29T00:56:29.961Z,12.80
2023-03-29T00:59:07.463Z,13.10
2023-03-29T01:01:42.002Z,12.47
2023-03-29T01:04:19.311Z,11.17
2023-03-29T01:06:59.637Z,13.63
2023-03-29T01:09:30.283Z,16.30
2023-03-29T01:11:59.473Z,18.07
2023-03-29T01:14:28.738Z,14.23
2023-03-29T01:16:55.497Z,15.70
2023-03-29T01:19:26.451Z,15.03
2023-03-29T01:22:06.453Z,16.43
2023-03-29T01:24:57.339Z,14.17
2023-03-29T01:27:51.628Z,16.07
2023-03-29T01:30:41.139Z,12.20
2023-03-29T01:33:14.913Z,14.00
2023-03-29T01:35:48.475Z,13.60
2023-03-29T01:38:19.443Z,11.90
2023-03-29T01:40:46.010Z,10.73
2023-03-29T01:43:12.426Z,12.33
2023-03-29T01:46:10.282Z,11.20
2023-03-29T01:48:56.641Z,15.77
2023-03-29T01:51:33.422Z,11.20
2023-03-29T01:54:22.471Z,13.83
2023-03-29T01:56:50.557Z,13.30
2023-03-29T01:59:20.325Z,18.50
2023-03-29T02:01:52.923Z,12.20
2023-03-29T02:04:29.907Z,12.80
2023-03-29T02:06:57.387Z,12.77
2023-03-29T02:09:24.074Z,15.17
2023-03-29T02:11:51.588Z,14.40
2023-03-29T02:14:18.098Z,18.53
2023-03-29T02:16:46.300Z,19.03
2023-03-29T02:19:13.674Z,30.77
2023-03-29T02:22:04.135Z,54.97
2023-03-29T02:24:32.642Z,37.37
2023-03-29T02:26:59.706Z,34.63
2023-03-29T02:29:26.398Z,33.27
2023-03-29T02:32:00.165Z,38.47
2023-03-29T02:34:30.568Z,29.73
2023-03-29T02:36:59.970Z,24.57
2023-03-29T02:39:28.217Z,19.93
2023-03-29T02:41:55.067Z,24.10
2023-03-29T02:44:25.841Z,21.40
2023-03-29T02:46:56.301Z,16.63
2023-03-29T02:49:23.651Z,19.73
2023-03-29T02:51:53.572Z,16.97
2023-03-29T02:54:23.140Z,15.67
2023-03-29T02:56:56.035Z,13.93
2023-03-29T02:59:22.727Z,10.70
2023-03-29T03:01:49.663Z,16.40
2023-03-29T03:04:18.496Z,17.03
2023-03-29T03:06:45.024Z,22.37
2023-03-29T03:09:11.874Z,20.03
2023-03-29T03:11:38.385Z,21.10
2023-03-29T03:14:05.773Z,17.10
2023-03-29T03:16:32.486Z,14.87
2023-03-29T03:18:59.173Z,18.77
2023-03-29T03:21:28.081Z,17.77
2023-03-29T03:23:55.706Z,18.03
2023-03-29T03:26:23.212Z,19.53
2023-03-29T03:28:49.760Z,21.93
2023-03-29T03:31:17.431Z,19.03
2023-03-29T03:33:44.756Z,17.50
2023-03-29T03:36:11.629Z,22.47
2023-03-29T03:38:38.602Z,21.33
2023-03-29T03:41:06.849Z,22.07
2023-03-29T03:43:34.225Z,26.23
2023-03-29T03:46:01.356Z,21.73
2023-03-29T03:48:28.493Z,21.83
2023-03-29T03:50:57.025Z,22.13
2023-03-29T03:53:24.396Z,20.50
2023-03-29T03:55:53.220Z,20.17
2023-03-29T03:58:19.843Z,26.13
2023-03-29T04:00:50.237Z,18.60
2023-03-29T04:03:17.784Z,18.83
2023-03-29T04:05:45.704Z,17.80
2023-03-29T04:08:13.060Z,17.87
2023-03-29T04:10:40.684Z,17.30
2023-03-29T04:13:07.758Z,18.90
2023-03-29T04:15:38.667Z,21.97
2023-03-29T04:18:07.323Z,20.27
2023-03-29T04:20:34.519Z,24.73
2023-03-29T04:23:01.139Z,20.37
2023-03-29T04:25:27.638Z,14.13
2023-03-29T04:27:54.146Z,18.30
2023-03-29T04:30:20.987Z,15.90
2023-03-29T04:32:47.696Z,23.50
2023-03-29T04:35:14.406Z,23.67
2023-03-29T04:37:41.968Z,22.50
2023-03-29T04:40:09.982Z,18.20
2023-03-29T04:42:37.442Z,22.20
2023-03-29T04:45:06.994Z,23.47
2023-03-29T04:47:36.497Z,28.40
2023-03-29T04:50:04.676Z,39.07
2023-03-29T04:52:33.322Z,19.60
2023-03-29T04:55:01.551Z,19.90
2023-03-29T04:57:29.193Z,23.93
2023-03-29T04:59:56.394Z,19.97
2023-03-29T05:02:23.929Z,21.67
2023-03-29T05:04:50.591Z,19.43
2023-03-29T05:07:18.190Z,21.27
2023-03-29T05:09:44.887Z,19.93
2023-03-29T05:12:11.649Z,27.90
2023-03-29T05:14:38.280Z,19.03
2023-03-29T05:17:05.287Z,21.17
2023-03-29T05:19:32.075Z,26.07
2023-03-29T05:21:59.111Z,19.67
2023-03-29T05:24:25.760Z,21.47
2023-03-29T05:26:52.531Z,19.60
2023-03-29T05:29:19.267Z,21.03
2023-03-29T05:31:47.089Z,19.83
2023-03-29T05:34:13.825Z,21.73
2023-03-29T05:36:40.397Z,23.27
2023-03-29T05:39:07.436Z,25.20
2023-03-29T05:41:34.507Z,18.40
2023-03-29T05:44:01.235Z,25.63
2023-03-29T05:46:27.815Z,27.57
2023-03-29T05:48:54.535Z,25.37
2023-03-29T05:51:24.409Z,22.50
2023-03-29T05:53:51.596Z,24.53
2023-03-29T05:56:19.021Z,19.97
2023-03-29T05:58:51.363Z,17.57
2023-03-29T06:01:18.890Z,19.50
2023-03-29T06:03:49.235Z,16.67
2023-03-29T06:06:16.671Z,14.53
2023-03-29T06:08:43.863Z,15.17
2023-03-29T06:11:12.131Z,14.83
2023-03-29T06:13:39.056Z,16.40
2023-03-29T06:16:06.642Z,15.70
2023-03-29T06:18:33.581Z,19.80
2023-03-29T06:21:03.597Z,16.80
2023-03-29T06:23:30.882Z,11.93
2023-03-29T06:25:58.089Z,17.97
2023-03-29T06:28:24.823Z,12.60
2023-03-29T06:30:53.440Z,12.20
2023-03-29T06:33:20.555Z,18.40
2023-03-29T06:35:48.551Z,20.10
2023-03-29T06:38:15.566Z,10.67
2023-03-29T06:40:44.527Z,13.90
2023-03-29T06:43:11.307Z,16.37
2023-03-29T06:45:38.721Z,15.83
2023-03-29T06:48:07.991Z,17.73
2023-03-29T06:50:35.481Z,15.93
2023-03-29T06:53:03.985Z,13.03
2023-03-29T06:55:31.617Z,13.33
2023-03-29T06:58:00.219Z,10.57
2023-03-29T07:00:28.435Z,11.67
2023-03-29T07:02:56.599Z,15.97
2023-03-29T07:05:24.035Z,14.00
2023-03-29T07:07:55.012Z,14.73
2023-03-29T07:10:32.383Z,14.73
2023-03-29T07:13:05.814Z,13.87
2023-03-29T07:15:33.267Z,14.57
2023-03-29T07:18:02.468Z,14.53
2023-03-29T07:20:29.865Z,9.47
2023-03-29T07:22:57.409Z,9.33
2023-03-29T07:25:25.297Z,8.73
2023-03-29T07:27:54.890Z,8.97
2023-03-29T07:30:24.276Z,13.07
2023-03-29T07:32:52.408Z,12.17
2023-03-29T07:35:19.214Z,10.10
2023-03-29T07:37:46.414Z,8.37
2023-03-29T07:40:24.844Z,12.37
2023-03-29T07:42:54.335Z,11.33
2023-03-29T07:45:26.542Z,14.70
2023-03-29T07:47:58.985Z,12.73
2023-03-29T07:50:26.854Z,12.47
2023-03-29T07:52:53.878Z,12.73
2023-03-29T07:55:22.233Z,11.90
2023-03-29T07:57:49.520Z,8.10
2023-03-29T08:00:17.078Z,9.33
2023-03-29T08:02:45.513Z,13.07
2023-03-29T08:05:13.702Z,11.47
2023-03-29T08:07:41.927Z,11.33
2023-03-29T08:10:10.794Z,12.40
2023-03-29T08:12:37.887Z,8.80
2023-03-29T08:15:08.485Z,10.30
2023-03-29T08:17:36.696Z,6.80
2023-03-29T08:20:08.085Z,11.03
2023-03-29T08:22:34.836Z,9.40
2023-03-29T08:25:03.237Z,6.73
2023-03-29T08:27:30.209Z,8.37
2023-03-29T08:29:56.938Z,10.83
2023-03-29T08:32:23.768Z,8.67
2023-03-29T08:34:50.449Z,9.03
2023-03-29T08:37:17.321Z,6.83
2023-03-29T08:39:43.946Z,6.23
2023-03-29T08:42:10.810Z,5.37
2023-03-29T08:44:49.240Z,6.13
2023-03-29T08:47:21.344Z,9.77
2023-03-29T08:49:51.075Z,7.90
2023-03-29T08:52:41.226Z,7.50
2023-03-29T08:55:18.139Z,8.83
2023-03-29T08:57:47.463Z,7.70
2023-03-29T09:00:34.242Z,9.17
2023-03-29T09:03:05.725Z,5.13
2023-03-29T09:05:39.196Z,11.97
2023-03-29T09:08:13.473Z,5.10
2023-03-29T09:10:47.537Z,3.80
2023-03-29T09:13:52.044Z,8.27
2023-03-29T09:16:53.945Z,4.53
2023-03-29T09:19:31.859Z,5.53
2023-03-29T09:22:16.635Z,5.47
2023-03-29T09:24:57.934Z,3.97
2023-03-29T09:27:27.820Z,9.27
2023-03-29T09:30:10.169Z,4.33
2023-03-29T09:32:45.125Z,2.93
2023-03-29T09:35:18.887Z,4.33
2023-03-29T09:37:46.984Z,3.67
2023-03-29T09:40:17.336Z,3.87
2023-03-29T09:42:45.543Z,4.03
2023-03-29T09:45:12.193Z,3.77
2023-03-29T09:47:44.849Z,4.03
2023-03-29T09:50:29.513Z,4.90
2023-03-29T09:52:57.337Z,6.50
2023-03-29T09:55:27.668Z,6.97
2023-03-29T09:57:56.135Z,6.40
2023-03-29T10:00:22.799Z,7.30
2023-03-29T10:02:57.816Z,4.23
2023-03-29T10:05:25.961Z,3.13
2023-03-29T10:07:55.458Z,4.83
2023-03-29T10:10:29.878Z,5.43
2023-03-29T10:13:04.413Z,5.33
2023-03-29T10:15:31.712Z,7.27
2023-03-29T10:18:05.924Z,5.77
2023-03-29T10:20:36.344Z,5.13
2023-03-29T10:23:06.791Z,8.40
2023-03-29T10:25:34.525Z,10.47
2023-03-29T10:28:11.376Z,6.57
2023-03-29T10:30:39.024Z,5.03
2023-03-29T10:33:07.756Z,3.90
2023-03-29T10:35:42.511Z,4.53
2023-03-29T10:38:14.969Z,5.20
2023-03-29T10:40:44.142Z,5.37
2023-03-29T10:43:20.091Z,5.67
2023-03-29T10:45:52.219Z,6.63
2023-03-29T10:48:19.460Z,5.33
2023-03-29T10:50:50.835Z,3.90
2023-03-29T10:53:34.734Z,4.43
2023-03-29T10:56:29.303Z,5.70
2023-03-29T10:59:14.834Z,6.20
2023-03-29T11:01:47.098Z,5.80
2023-03-29T11:04:40.032Z,6.77
2023-03-29T11:07:32.897Z,6.60
2023-03-29T11:10:19.312Z,4.60
2023-03-29T11:13:08.467Z,4.03
2023-03-29T11:15:53.867Z,5.37
2023-03-29T11:18:59.241Z,8.07
2023-03-29T11:21:44.850Z,6.00
2023-03-29T11:24:26.613Z,7.50
2023-03-29T11:27:25.792Z,5.40
2023-03-29T11:30:27.541Z,4.43
2023-03-29T11:33:13.882Z,4.67
2023-03-29T11:35:40.444Z,5.63
2023-03-29T11:38:25.418Z,8.07
2023-03-29T11:41:26.069Z,5.70
2023-03-29T11:43:57.614Z,6.40
2023-03-29T11:46:34.213Z,6.73
2023-03-29T11:49:34.333Z,4.10
2023-03-29T11:52:29.234Z,4.07
2023-03-29T11:54:59.770Z,9.07
2023-03-29T11:57:31.021Z,5.70
2023-03-29T12:00:27.740Z,4.53
2023-03-29T12:03:11.241Z,5.50
2023-03-29T12:05:44.717Z,7.93
2023-03-29T12:08:16.881Z,5.23
2023-03-29T12:10:53.708Z,5.60
2023-03-29T12:13:28.844Z,9.77
2023-03-29T12:16:08.340Z,7.77
2023-03-29T12:18:44.134Z,5.33
2023-03-29T12:21:14.454Z,8.03
2023-03-29T12:23:42.599Z,6.17
2023-03-29T12:26:12.262Z,9.40
2023-03-29T12:29:14.614Z,7.70
2023-03-29T12:31:47.400Z,5.63
2023-03-29T12:34:31.163Z,8.27
2023-03-29T12:37:12.781Z,5.33
2023-03-29T12:39:40.045Z,6.20
2023-03-29T12:42:23.431Z,6.20
2023-03-29T12:44:57.178Z,7.07
2023-03-29T12:47:26.906Z,11.57
2023-03-29T12:49:57.825Z,8.13
2023-03-29T12:52:32.354Z,9.10
2023-03-29T12:55:01.365Z,7.97
2023-03-29T12:58:03.170Z,4.00
2023-03-29T13:00:42.632Z,7.07
2023-03-29T13:04:00.616Z,6.43
2023-03-29T13:06:35.889Z,6.37
2023-03-29T13:09:46.610Z,4.20
2023-03-29T13:12:23.056Z,4.83
2023-03-29T13:15:00.734Z,5.70
2023-03-29T13:18:04.597Z,3.53
2023-03-29T13:20:43.592Z,3.40
2023-03-29T13:23:36.433Z,5.10
2023-03-29T13:26:27.097Z,9.40
2023-03-29T13:29:31.565Z,3.70
2023-03-29T13:32:37.336Z,3.60
2023-03-29T13:35:15.696Z,2.37
2023-03-29T13:38:05.383Z,5.10
2023-03-29T13:40:41.897Z,6.93
2023-03-29T13:43:11.935Z,3.77
2023-03-29T13:45:38.992Z,3.97
2023-03-29T13:48:33.749Z,3.03
2023-03-29T13:51:21.822Z,3.93
2023-03-29T13:54:00.784Z,4.23
2023-03-29T13:56:32.825Z,5.53
2023-03-29T13:59:21.036Z,5.67
2023-03-29T14:01:53.462Z,3.87
2023-03-29T14:04:56.246Z,3.87
2023-03-29T14:07:26.432Z,3.13
2023-03-29T14:09:53.957Z,5.30
2023-03-29T14:12:20.659Z,3.53
2023-03-29T14:14:58.369Z,3.30
2023-03-29T14:17:25.898Z,4.67
2023-03-29T14:19:53.573Z,4.13
2023-03-29T14:22:21.446Z,3.97
2023-03-29T14:24:52.784Z,3.03
2023-03-29T14:27:21.363Z,3.37
2023-03-29T14:29:49.755Z,4.23
2023-03-29T14:32:27.601Z,3.30
2023-03-29T14:34:54.274Z,4.60
2023-03-29T14:37:30.133Z,9.23
2023-03-29T14:39:58.560Z,4.43
2023-03-29T14:42:26.933Z,6.57
2023-03-29T14:44:58.866Z,4.00
2023-03-29T14:47:28.422Z,4.30
2023-03-29T14:49:58.833Z,3.13
2023-03-29T14:52:25.869Z,4.40
2023-03-29T14:54:56.580Z,5.03
2023-03-29T14:57:25.610Z,4.17
2023-03-29T14:59:55.817Z,6.50
2023-03-29T15:02:25.404Z,5.30
2023-03-29T15:05:07.746Z,5.43
2023-03-29T15:07:36.884Z,6.47
2023-03-29T15:10:06.297Z,7.47
2023-03-29T15:12:33.794Z,7.57
2023-03-29T15:15:01.493Z,8.30
2023-03-29T15:17:51.154Z,7.27
2023-03-29T15:20:26.501Z,7.20
2023-03-29T15:22:55.131Z,6.13
2023-03-29T15:25:22.111Z,7.53
2023-03-29T15:27:56.099Z,7.27
2023-03-29T15:30:34.478Z,7.13
2023-03-29T15:33:20.987Z,7.37
2023-03-29T15:35:50.567Z,5.43
2023-03-29T15:38:17.585Z,4.53
2023-03-29T15:40:44.250Z,4.37
2023-03-29T15:43:11.114Z,6.13
2023-03-29T15:45:37.873Z,5.80
2023-03-29T15:48:22.645Z,7.33
2023-03-29T15:50:49.672Z,7.30
2023-03-29T15:53:20.806Z,5.77
2023-03-29T15:55:50.882Z,13.50
2023-03-29T15:58:20.077Z,5.63
2023-03-29T16:00:51.347Z,6.53
2023-03-29T16:03:17.989Z,6.67
2023-03-29T16:05:45.971Z,6.57
2023-03-29T16:08:13.285Z,6.97
2023-03-29T16:10:41.265Z,8.13
2023-03-29T16:13:07.811Z,10.00
2023-03-29T16:15:36.798Z,6.37
2023-03-29T16:18:04.591Z,6.90
2023-03-29T16:20:31.130Z,11.80
2023-03-29T16:22:57.706Z,14.70
2023-03-29T16:25:25.672Z,4.60
2023-03-29T16:27:54.992Z,8.73
2023-03-29T16:30:21.681Z,5.37
2023-03-29T16:32:48.309Z,10.07
2023-03-29T16:35:42.037Z,4.80
2023-03-29T16:38:09.245Z,8.27
2023-03-29T16:40:36.685Z,8.87
2023-03-29T16:43:07.675Z,7.10
2023-03-29T16:45:34.259Z,8.23
2023-03-29T16:48:00.808Z,9.33
2023-03-29T16:50:27.531Z,10.73
2023-03-29T16:52:54.355Z,8.17
2023-03-29T16:55:21.123Z,11.70
2023-03-29T16:57:48.585Z,11.23
2023-03-29T17:00:16.499Z,8.93
2023-03-29T17:02:43.944Z,8.10
2023-03-29T17:05:12.369Z,14.90
2023-03-29T17:07:48.305Z,8.77
2023-03-29T17:10:15.585Z,7.93
2023-03-29T17:12:42.723Z,8.90
2023-03-29T17:15:09.654Z,10.03
2023-03-29T17:17:37.886Z,13.13
2023-03-29T17:20:08.536Z,9.13
2023-03-29T17:22:35.894Z,14.57
2023-03-29T17:25:04.470Z,13.60
2023-03-29T17:27:31.017Z,10.60
2023-03-29T17:29:57.486Z,12.23
2023-03-29T17:32:24.489Z,12.47
2023-03-29T17:34:51.935Z,17.97
2023-03-29T17:37:20.291Z,9.60
2023-03-29T17:39:47.180Z,12.57
2023-03-29T17:42:13.896Z,16.97
2023-03-29T17:44:40.516Z,9.17
2023-03-29T17:47:07.149Z,13.30
2023-03-29T17:49:35.653Z,17.80
2023-03-29T17:52:04.823Z,13.73
2023-03-29T17:54:31.373Z,11.53
2023-03-29T17:56:58.087Z,23.63
2023-03-29T17:59:25.274Z,15.60
2023-03-29T18:01:51.957Z,14.23
2023-03-29T18:04:18.546Z,22.80
2023-03-29T18:06:45.804Z,18.67
2023-03-29T18:09:12.931Z,15.27
2023-03-29T18:11:39.483Z,17.77
2023-03-29T18:14:06.075Z,10.63
2023-03-29T18:16:32.764Z,17.43
2023-03-29T18:18:59.334Z,10.20
2023-03-29T18:21:27.352Z,16.13
2023-03-29T18:23:56.655Z,22.67
2023-03-29T18:26:23.606Z,16.40
2023-03-29T18:28:50.993Z,12.00
2023-03-29T18:31:20.090Z,23.43
2023-03-29T18:33:47.632Z,14.20
2023-03-29T18:36:14.717Z,17.87
2023-03-29T18:38:43.218Z,27.57
2023-03-29T19:39:33.699Z,24.63
2023-03-29T19:42:18.845Z,23.23
2023-03-29T19:44:45.449Z,23.97
2023-03-29T19:47:12.369Z,29.97
2023-03-29T19:49:39.050Z,26.63
2023-03-29T19:52:06.496Z,25.40
2023-03-29T19:54:33.088Z,22.10
2023-03-29T19:57:00.127Z,24.80
2023-03-29T19:59:28.484Z,26.57
2023-03-29T20:01:56.893Z,25.10
2023-03-29T20:04:24.676Z,24.13
2023-03-29T20:06:51.914Z,20.03
2023-03-29T20:09:18.789Z,23.93
2023-03-29T20:11:46.780Z,32.20
2023-03-29T20:14:13.728Z,25.60
2023-03-29T20:16:40.488Z,26.57
2023-03-29T20:19:07.262Z,36.10
2023-03-29T20:21:34.207Z,24.53
2023-03-29T20:24:00.720Z,26.63
2023-03-29T20:26:28.210Z,25.67
2023-03-29T20:28:55.150Z,29.60
2023-03-29T20:31:21.774Z,24.93
2023-03-29T20:33:48.441Z,31.17
2023-03-29T20:36:18.509Z,32.10
2023-03-29T20:38:45.956Z,27.53
2023-03-29T20:41:13.892Z,30.33
2023-03-29T20:43:41.286Z,28.83
2023-03-29T20:46:14.683Z,27.70
2023-03-29T20:48:53.002Z,26.37
2023-03-29T20:51:21.525Z,38.97
2023-03-29T20:53:48.155Z,25.60
2023-03-29T20:56:14.985Z,26.23
2023-03-29T20:58:43.899Z,29.50
2023-03-29T21:01:14.194Z,36.40
2023-03-29T21:03:42.378Z,31.13
2023-03-29T21:06:09.500Z,30.80
2023-03-29T21:08:35.988Z,31.17
2023-03-29T21:11:03.269Z,30.27
2023-03-29T21:13:34.297Z,31.30
2023-03-29T21:16:02.945Z,32.13
2023-03-29T21:18:29.736Z,34.20
2023-03-29T21:20:56.523Z,40.50
2023-03-29T21:23:22.989Z,38.47
2023-03-29T21:25:49.667Z,35.63
2023-03-29T21:28:16.506Z,37.87
2023-03-29T21:30:42.979Z,38.93
2023-03-29T21:33:09.717Z,39.03
2023-03-29T21:35:36.385Z,38.03
2023-03-29T21:38:02.978Z,34.40
2023-03-29T21:40:29.476Z,34.00
2023-03-29T21:42:56.233Z,37.77
2023-03-29T21:45:22.869Z,36.50
2023-03-29T21:47:49.476Z,33.70
2023-03-29T21:50:16.507Z,41.53
2023-03-29T21:52:42.987Z,37.37
2023-03-29T21:55:09.624Z,36.27
2023-03-29T21:57:36.216Z,36.13
2023-03-29T22:00:05.249Z,35.20
2023-03-29T22:02:32.337Z,32.30
2023-03-29T22:04:59.013Z,31.23
2023-03-29T22:07:25.553Z,30.13
2023-03-29T22:09:52.279Z,34.33
2023-03-29T22:12:18.789Z,34.50
2023-03-29T22:14:45.290Z,29.60
2023-03-29T22:17:12.082Z,36.77
2023-03-29T22:19:39.634Z,34.47
2023-03-29T22:22:07.170Z,32.87
2023-03-29T22:24:33.735Z,33.87
2023-03-29T22:27:00.237Z,35.10
2023-03-29T22:29:26.777Z,31.23
2023-03-29T22:31:53.423Z,32.77
2023-03-29T22:34:19.992Z,32.37
2023-03-29T22:36:46.546Z,31.63
2023-03-29T22:39:13.479Z,33.33
2023-03-29T22:41:39.943Z,34.10
2023-03-29T22:44:06.448Z,29.90
2023-03-29T22:46:33.393Z,31.83
2023-03-29T22:49:00.256Z,30.50
2023-03-29T22:51:27.284Z,29.80
2023-03-29T22:53:53.967Z,28.97
2023-03-29T22:56:20.450Z,25.20
2023-03-29T22:58:46.956Z,27.73
2023-03-29T23:01:13.633Z,24.83
2023-03-29T23:03:40.489Z,27.07
2023-03-29T23:06:07.265Z,28.03
2023-03-29T23:08:34.205Z,32.43
2023-03-29T23:11:01.784Z,29.57
2023-03-29T23:13:29.412Z,29.00
2023-03-29T23:15:58.858Z,29.27
2023-03-29T23:18:27.780Z,26.23
2023-03-29T23:20:56.705Z,26.00
2023-03-29T23:23:24.375Z,28.13
2023-03-29T23:25:52.471Z,22.77
2023-03-29T23:28:21.947Z,27.67
2023-03-29T23:31:03.418Z,27.77
2023-03-29T23:33:35.280Z,25.63
2023-03-29T23:36:04.271Z,27.07
2023-03-29T23:38:31.922Z,21.70
2023-03-29T23:41:02.201Z,27.07
2023-03-29T23:43:33.605Z,26.33
2023-03-29T23:46:05.714Z,29.50
2023-03-29T23:48:32.775Z,23.73
2023-03-29T23:50:59.255Z,24.97
2023-03-29T23:53:28.459Z,23.40
2023-03-29T23:56:00.355Z,24.30
2023-03-29T23:58:30.953Z,19.20
